Fort McClellan, AL (36205)

1:44 AM CST on December 18, 2014 (GMT -0600)
RAWS MT. LONGLEAF AL US | Change Station
CLOSE
Current Station
Personal Weather Station
Location: Fort McClellan, AL
Elevation: 1049 ft
Nearby Weather Stations

Elev 1049 ft 33.72 °N, 85.76 °W | Updated 58 minutes ago

Mostly Cloudy
Mostly Cloudy
35 °F
Feels Like 35 °F
N
1
Wind Variable Wind from WNW
Gusts 4.0 mph

Today
High -- | Low -- °F
--% Chance of Precip.
Yesterday
High -- | Low -- °F
Precip. -- in
6:42 AM 4:37 PM
Waning Crescent, 16% visible
Pressure 30.22 in
Visibility 7.0 miles
Clouds Clear
Windchill 35 °F
Dew Point 34 °F
Humidity 96%
Rainfall 0.00 in
Snow Depth Not available.
UV 0 out of 12
Pollen 1.50 out of 12
Air Quality Not available.
Flu Activity Not available.
METAR KANB 180653Z AUTO 00000KT 7SM CLR 01/00 A3019 RMK AO2 SLP233 T00110000

More Conditions Fewer Conditions

Pressure 30.22 in
Visibility 7.0 miles
Clouds Clear
Windchill 35 °F
Dew Point 34 °F
Humidity 96%
Rainfall 0.00 in
Snow Depth Not available.
UV 0 out of 12
Pollen 1.50 out of 12
Air Quality Not available.
Flu Activity Not available.
METAR KANB 180653Z AUTO 00000KT 7SM CLR 01/00 A3019 RMK AO2 SLP233 T00110000

More Conditions Fewer Conditions

10-Day Weather Forecast

Almanac

Astronomy

Dec. 18, 2014 Rise Set
Actual Time
Civil Twilight
Nautical Twilight
Astronomical Twilight
Moon
Length of Visible Light
Length of Day
Tomorrow will be .
, % of the Moon is Illuminated

Today's Extremes

State Highs State Lows

Community

WunderPhotos

Upload Photos

1,778,900 photos uploaded!

WunderBlogs® & News

Nearby

Air Quality

  Air Quality AQ Index Pollutant
Not available.

Snow Depth

Station Depth Elevation

Earthquake Activity

City Distance Mag. Time & Date
Minimum magnitude displayed is 2.5.

Coastal Water Temperatures

Place Temperature

Nearby Weather Stations